Time;durP1;ratioP1;P1;durP2;ratioP2;P2;SDS_P1;SDS_P2;PMS_P1;PMS_P2;Temp;Humidity;BMP_temperature;BMP_pressure;BME280_temperature;BME280_humidity;BME280_pressure;Samples;Min_cycle;Max_cycle;Signal;HPM_P1;HPM_P2
2024/04/23 00:01:41;;;;;;;2.10;2.00;;;5.90;99.90;;;;;;5361615;26;20261;-72
2024/04/23 00:04:07;;;;;;;2.03;1.92;;;5.90;99.90;;;;;;5361177;26;20261;-72
2024/04/23 00:06:36;;;;;;;2.30;2.20;;;5.90;99.90;;;;;;5360833;26;20910;-71
2024/04/23 00:09:11;;;;;;;2.17;2.08;;;5.90;99.90;;;;;;5370487;26;20263;-73
2024/04/23 00:11:42;;;;;;;2.20;2.10;;;5.90;99.90;;;;;;5400606;26;20396;-71
2024/04/23 00:14:08;;;;;;;2.13;2.03;;;5.90;99.90;;;;;;5417533;26;20292;-72
2024/04/23 00:16:37;;;;;;;2.00;1.90;;;5.90;99.90;;;;;;5371195;26;20299;-71
2024/04/23 00:19:03;;;;;;;2.20;2.10;;;6.00;99.90;;;;;;5425313;26;20253;-71
2024/04/23 00:21:31;;;;;;;2.05;1.95;;;6.00;99.90;;;;;;5428528;26;20620;-71
2024/04/23 00:23:57;;;;;;;2.28;2.17;;;5.90;99.90;;;;;;5403124;26;20258;-71
2024/04/23 00:26:26;;;;;;;1.90;1.90;;;6.00;99.90;;;;;;5404212;26;20753;-72
2024/04/23 00:28:55;;;;;;;2.20;2.10;;;6.00;99.90;;;;;;5418235;26;20291;-71
2024/04/23 00:31:24;;;;;;;2.20;2.10;;;6.00;99.90;;;;;;5399275;26;20267;-71
2024/04/23 00:33:50;;;;;;;2.30;2.20;;;6.00;99.90;;;;;;5417787;26;20264;-71
2024/04/23 00:36:19;;;;;;;1.92;1.83;;;6.00;99.90;;;;;;5383683;26;20309;-71
2024/04/23 00:38:45;;;;;;;2.03;2.00;;;5.90;99.90;;;;;;5394383;26;20285;-71
2024/04/23 00:41:13;;;;;;;1.90;1.80;;;5.90;99.90;;;;;;5424855;26;20263;-71
2024/04/23 00:43:39;;;;;;;2.17;2.08;;;5.90;99.90;;;;;;5428003;26;20263;-72
2024/04/23 00:46:13;;;;;;;2.15;2.05;;;5.90;99.90;;;;;;5403075;26;20285;-73
2024/04/23 00:48:39;;;;;;;2.20;2.10;;;5.80;99.90;;;;;;5431112;26;20315;-72
2024/04/23 00:51:08;;;;;;;2.17;2.08;;;5.80;99.90;;;;;;5402259;26;20255;-72
2024/04/23 00:53:34;;;;;;;2.17;2.08;;;5.80;99.90;;;;;;5422171;26;20283;-73
2024/04/23 00:56:04;;;;;;;2.20;2.10;;;5.80;99.90;;;;;;5388939;26;20298;-72
2024/04/23 00:58:31;;;;;;;2.10;2.00;;;5.80;99.90;;;;;;5391554;26;20291;-73
2024/04/23 01:01:01;;;;;;;1.95;1.90;;;5.80;99.90;;;;;;5413655;26;20252;-71
2024/04/23 01:03:30;;;;;;;2.08;1.98;;;5.80;99.90;;;;;;5411721;26;20253;-72
2024/04/23 01:05:58;;;;;;;2.20;2.10;;;5.80;99.90;;;;;;5411963;26;20714;-71
2024/04/23 01:08:24;;;;;;;2.00;1.90;;;5.80;99.90;;;;;;5405460;26;20251;-71
2024/04/23 01:10:53;;;;;;;2.10;2.00;;;5.80;99.90;;;;;;5426024;26;20802;-71
2024/04/23 01:13:19;;;;;;;1.95;1.85;;;5.80;99.90;;;;;;5428190;26;20767;-71
2024/04/23 01:15:49;;;;;;;2.25;2.15;;;5.80;99.90;;;;;;5405205;26;20260;-71
2024/04/23 01:18:17;;;;;;;2.22;2.13;;;5.80;99.90;;;;;;5406054;26;20271;-71
2024/04/23 01:20:49;;;;;;;2.30;2.20;;;5.80;99.90;;;;;;5429990;26;20740;-72
2024/04/23 01:23:21;;;;;;;2.10;2.00;;;5.80;99.90;;;;;;5406947;26;20294;-71
2024/04/23 01:25:55;;;;;;;2.03;1.92;;;5.80;99.90;;;;;;5402605;26;20255;-72
2024/04/23 01:28:23;;;;;;;2.10;2.00;;;5.80;99.90;;;;;;5422810;26;20252;-71
2024/04/23 01:30:52;;;;;;;2.08;1.98;;;5.80;99.90;;;;;;5429463;26;20362;-72
2024/04/23 01:33:18;;;;;;;2.13;2.03;;;5.80;99.90;;;;;;5417408;26;20986;-72
2024/04/23 01:35:47;;;;;;;2.20;2.10;;;5.80;99.90;;;;;;5424901;26;20263;-72
2024/04/23 01:38:14;;;;;;;2.20;2.10;;;5.80;99.90;;;;;;5404051;26;20253;-71
2024/04/23 01:40:43;;;;;;;2.20;2.05;;;5.80;99.90;;;;;;5418967;26;20249;-71
2024/04/23 01:43:09;;;;;;;2.25;2.15;;;5.70;99.90;;;;;;5383386;26;20304;-71
2024/04/23 01:45:41;;;;;;;2.03;1.92;;;5.70;99.90;;;;;;5426444;26;20355;-71
2024/04/23 01:48:08;;;;;;;1.80;1.77;;;5.70;99.90;;;;;;5421055;26;20252;-72
2024/04/23 01:50:37;;;;;;;2.08;1.98;;;5.70;99.90;;;;;;5412598;26;20872;-72
2024/04/23 01:53:03;;;;;;;2.25;2.15;;;5.70;99.90;;;;;;5416074;26;21114;-74
2024/04/23 01:55:32;;;;;;;2.35;2.25;;;5.70;99.90;;;;;;5404827;26;20365;-71
2024/04/23 01:57:59;;;;;;;2.10;2.00;;;5.70;99.90;;;;;;5415645;26;20255;-72
2024/04/23 02:00:34;;;;;;;2.20;2.10;;;5.70;99.90;;;;;;5430924;26;20783;-72
2024/04/23 02:03:05;;;;;;;1.98;1.88;;;5.70;99.90;;;;;;5373497;26;20250;-71
2024/04/23 02:05:36;;;;;;;2.03;1.92;;;5.70;99.90;;;;;;5366142;26;20364;-71
2024/04/23 02:08:02;;;;;;;2.25;2.15;;;5.70;99.90;;;;;;5415942;26;20256;-70
2024/04/23 02:10:31;;;;;;;2.10;2.00;;;5.70;99.90;;;;;;5389298;26;20259;-70
2024/04/23 02:12:57;;;;;;;2.00;1.90;;;5.70;99.90;;;;;;5409714;26;20289;-70
2024/04/23 02:15:25;;;;;;;1.92;1.83;;;5.60;99.90;;;;;;5417283;26;20259;-70
2024/04/23 02:17:51;;;;;;;1.90;1.90;;;5.60;99.90;;;;;;5430957;26;20263;-69
2024/04/23 02:20:23;;;;;;;2.30;2.20;;;5.60;99.90;;;;;;5431264;26;20297;-70
2024/04/23 02:22:49;;;;;;;2.20;2.10;;;5.50;99.90;;;;;;5405454;26;20318;-71
2024/04/23 02:25:18;;;;;;;1.90;1.80;;;5.50;99.90;;;;;;5423574;26;20263;-71
2024/04/23 02:27:44;;;;;;;2.17;2.08;;;5.50;99.90;;;;;;5404173;26;20799;-71
2024/04/23 02:30:14;;;;;;;1.83;1.83;;;5.50;99.90;;;;;;5399081;26;20293;-70
2024/04/23 02:32:40;;;;;;;1.55;1.55;;;5.50;99.90;;;;;;5414705;26;20255;-70
2024/04/23 02:35:09;;;;;;;1.70;1.70;;;5.50;99.90;;;;;;5403049;26;20608;-70
2024/04/23 02:37:37;;;;;;;2.17;2.08;;;5.60;99.90;;;;;;5434083;26;20250;-70
2024/04/23 02:40:06;;;;;;;2.20;2.10;;;5.60;99.90;;;;;;5434796;26;20828;-70
2024/04/23 02:42:32;;;;;;;2.30;2.20;;;5.50;99.90;;;;;;5427161;26;20278;-71
2024/04/23 02:45:01;;;;;;;2.30;2.20;;;5.50;99.90;;;;;;5359434;26;20945;-71
2024/04/23 02:47:27;;;;;;;2.10;2.00;;;5.50;99.90;;;;;;5403281;26;20255;-72
2024/04/23 02:49:56;;;;;;;2.20;2.10;;;5.50;99.90;;;;;;5427105;26;20250;-72
2024/04/23 02:52:22;;;;;;;1.85;1.83;;;5.50;99.90;;;;;;5364954;26;20344;-72
2024/04/23 02:54:54;;;;;;;2.22;2.13;;;5.50;99.90;;;;;;5400373;26;20256;-72
2024/04/23 02:57:20;;;;;;;2.25;2.15;;;5.50;99.90;;;;;;5437629;26;20274;-73
2024/04/23 02:59:49;;;;;;;2.17;2.08;;;5.50;99.90;;;;;;5431650;26;20602;-72
2024/04/23 03:02:15;;;;;;;1.70;1.70;;;5.50;99.90;;;;;;5381883;26;20310;-75
2024/04/23 03:04:45;;;;;;;2.00;1.90;;;5.50;99.90;;;;;;5397954;26;20251;-71
2024/04/23 03:07:12;;;;;;;1.90;1.80;;;5.50;99.90;;;;;;5435424;26;20259;-71
2024/04/23 03:09:41;;;;;;;2.20;2.10;;;5.50;99.90;;;;;;5439608;26;20255;-71
2024/04/23 03:12:10;;;;;;;2.30;2.20;;;5.50;99.90;;;;;;5437740;26;20987;-72
2024/04/23 03:14:38;;;;;;;1.70;1.70;;;5.50;99.90;;;;;;5438902;26;20247;-71
2024/04/23 03:17:04;;;;;;;2.20;2.10;;;5.50;99.90;;;;;;5436776;26;20295;-70
2024/04/23 03:19:34;;;;;;;2.05;2.00;;;5.50;99.90;;;;;;5432613;26;20331;-72
2024/04/23 03:22:00;;;;;;;2.05;1.95;;;5.50;99.90;;;;;;5406266;26;20286;-72
2024/04/23 03:24:28;;;;;;;2.08;1.98;;;5.50;99.90;;;;;;5433831;26;20252;-71
2024/04/23 03:26:56;;;;;;;1.75;1.75;;;5.50;99.90;;;;;;5423290;26;20290;-71
2024/04/23 03:29:27;;;;;;;7.65;2.45;;;5.50;99.90;;;;;;5440236;26;20248;-71
2024/04/23 03:32:00;;;;;;;1.90;1.80;;;5.50;99.90;;;;;;5404600;26;21283;-71
2024/04/23 03:34:29;;;;;;;1.92;1.83;;;5.50;99.90;;;;;;5434894;26;20264;-72
2024/04/23 03:36:58;;;;;;;2.25;2.15;;;5.50;99.90;;;;;;5435641;26;20385;-72
2024/04/23 03:39:28;;;;;;;2.20;2.10;;;5.40;99.90;;;;;;5405909;26;20260;-70
2024/04/23 03:41:54;;;;;;;2.22;2.13;;;5.40;99.90;;;;;;5434298;26;20285;-70
2024/04/23 03:44:23;;;;;;;2.03;1.92;;;5.30;99.90;;;;;;5429665;26;20247;-71
2024/04/23 03:46:55;;;;;;;2.00;1.90;;;5.30;99.90;;;;;;5433203;26;20282;-71
2024/04/23 03:49:21;;;;;;;1.98;1.88;;;5.40;99.90;;;;;;5403537;26;20327;-71
2024/04/23 03:51:52;;;;;;;1.63;1.63;;;5.40;99.90;;;;;;5429319;26;20281;-71
2024/04/23 03:54:18;;;;;;;2.05;2.00;;;5.40;99.90;;;;;;5432429;26;20315;-70
2024/04/23 03:56:47;;;;;;;2.25;2.15;;;5.40;99.90;;;;;;5407430;26;20255;-74
2024/04/23 03:59:14;;;;;;;2.03;1.92;;;5.50;99.90;;;;;;5428911;26;20267;-72
2024/04/23 04:01:43;;;;;;;1.80;1.80;;;5.50;99.90;;;;;;5400940;26;20832;-71
2024/04/23 04:06:59;;;;;;;2.00;1.90;;;5.50;99.90;;;;;;5422503;26;20403;-71
2024/04/23 04:09:28;;;;;;;1.90;1.90;;;5.50;99.90;;;;;;5432158;26;20283;-71
2024/04/23 04:11:59;;;;;;;2.30;2.20;;;5.50;99.90;;;;;;5428933;26;21256;-71
2024/04/23 04:14:28;;;;;;;2.15;2.05;;;5.40;99.90;;;;;;5428560;26;20281;-72
2024/04/23 04:16:54;;;;;;;1.95;1.95;;;5.40;99.90;;;;;;5417728;26;20659;-73
2024/04/23 04:19:25;;;;;;;2.35;2.25;;;5.40;99.90;;;;;;5402269;26;20289;-72
2024/04/23 04:21:55;;;;;;;2.38;2.28;;;5.30;99.90;;;;;;5427277;26;20315;-71
2024/04/23 04:24:24;;;;;;;2.10;2.00;;;5.30;99.90;;;;;;5402666;26;20246;-72
2024/04/23 04:26:50;;;;;;;2.17;2.08;;;5.30;99.90;;;;;;5408365;26;20259;-70
2024/04/23 04:29:19;;;;;;;2.05;1.95;;;5.40;99.90;;;;;;5431003;26;20951;-71
2024/04/23 04:31:45;;;;;;;2.03;1.92;;;5.40;99.90;;;;;;5402990;26;20251;-70
2024/04/23 04:34:14;;;;;;;2.15;2.05;;;5.40;99.90;;;;;;5409264;26;20297;-72
2024/04/23 04:36:44;;;;;;;1.85;1.77;;;5.40;99.90;;;;;;5404279;26;20903;-71
2024/04/23 04:39:12;;;;;;;2.20;2.10;;;5.40;99.90;;;;;;5405481;26;20725;-72
2024/04/23 04:41:39;;;;;;;1.80;1.80;;;5.40;99.90;;;;;;5402568;26;20332;-70
2024/04/23 04:44:07;;;;;;;2.03;2.00;;;5.40;99.90;;;;;;5406995;26;20260;-71
2024/04/23 04:46:34;;;;;;;2.00;1.90;;;5.50;99.90;;;;;;5429644;26;20740;-70
2024/04/23 04:49:02;;;;;;;1.80;1.80;;;5.50;99.90;;;;;;5394089;26;20259;-71
2024/04/23 04:51:28;;;;;;;1.85;1.83;;;5.50;99.90;;;;;;5429795;26;20278;-70
2024/04/23 04:54:00;;;;;;;1.67;1.67;;;5.50;99.90;;;;;;5434802;26;20249;-71
2024/04/23 04:56:27;;;;;;;2.17;2.08;;;5.50;99.90;;;;;;5428883;26;20285;-71
2024/04/23 04:58:56;;;;;;;2.30;2.20;;;5.50;99.90;;;;;;5418702;26;20263;-71
2024/04/23 05:01:22;;;;;;;2.08;1.98;;;5.50;99.90;;;;;;5400067;26;20263;-71
2024/04/23 05:03:52;;;;;;;2.22;2.13;;;5.40;99.90;;;;;;5429765;26;20309;-71
2024/04/23 05:06:19;;;;;;;2.28;2.08;;;5.40;99.90;;;;;;5437692;26;20251;-71
2024/04/23 05:08:48;;;;;;;2.10;2.05;;;5.40;99.90;;;;;;5426037;26;20288;-74
2024/04/23 05:11:17;;;;;;;2.20;2.10;;;5.40;99.90;;;;;;5430847;26;20256;-72
2024/04/23 05:13:47;;;;;;;2.22;2.13;;;5.40;99.90;;;;;;5426801;26;20251;-72
2024/04/23 05:16:13;;;;;;;2.30;2.20;;;5.50;99.90;;;;;;5427969;26;20239;-72
2024/04/23 05:18:41;;;;;;;2.15;2.05;;;5.50;99.90;;;;;;5424114;26;20358;-72
2024/04/23 05:21:07;;;;;;;2.10;2.00;;;5.50;99.90;;;;;;5392555;26;20286;-72
2024/04/23 05:23:36;;;;;;;1.90;1.80;;;5.50;99.90;;;;;;5416694;26;20255;-72
2024/04/23 05:26:02;;;;;;;1.98;1.88;;;5.60;99.90;;;;;;5405964;26;20319;-72
2024/04/23 05:28:34;;;;;;;2.45;2.35;;;5.60;99.90;;;;;;5398884;26;20380;-71
2024/04/23 05:33:48;;;;;;;1.98;1.88;;;5.70;99.90;;;;;;5434264;26;21132;-71
2024/04/23 05:36:18;;;;;;;2.10;2.00;;;5.80;99.90;;;;;;5405772;26;20286;-71
2024/04/23 05:38:46;;;;;;;2.28;2.17;;;5.90;99.90;;;;;;5425987;26;20705;-71
2024/04/23 05:41:15;;;;;;;2.00;1.90;;;6.00;99.90;;;;;;5403718;26;20287;-71
2024/04/23 05:43:47;;;;;;;2.13;2.03;;;6.00;99.90;;;;;;5413170;26;20264;-71
2024/04/23 05:46:16;;;;;;;2.13;2.03;;;6.10;99.90;;;;;;5428326;26;20257;-72
2024/04/23 05:49:21;;;;;;;2.03;2.00;;;6.10;99.90;;;;;;5408551;26;20301;-71
2024/04/23 05:52:27;;;;;;;2.30;2.20;;;6.20;99.90;;;;;;5419263;26;20254;-71
2024/04/23 05:55:44;;;;;;;2.10;2.00;;;6.40;99.90;;;;;;5427234;26;20251;-71
2024/04/23 05:58:10;;;;;;;1.88;1.83;;;6.50;99.90;;;;;;5256141;27;20299;-72
2024/04/23 06:00:41;;;;;;;2.83;2.70;;;6.50;99.90;;;;;;5384092;26;20680;-73
2024/04/23 06:03:07;;;;;;;2.85;2.65;;;6.50;99.90;;;;;;5429123;26;20254;-71
2024/04/23 06:05:36;;;;;;;2.75;2.58;;;6.40;99.90;;;;;;5423861;26;20251;-71
2024/04/23 06:08:02;;;;;;;2.97;2.78;;;6.40;99.90;;;;;;5402870;26;20263;-72
2024/04/23 06:10:30;;;;;;;2.85;2.65;;;6.40;99.90;;;;;;5389560;26;20245;-71
2024/04/23 06:12:56;;;;;;;2.90;2.70;;;6.30;99.90;;;;;;5394651;26;20256;-71
2024/04/23 06:15:25;;;;;;;2.75;2.65;;;6.30;99.90;;;;;;5406388;26;20303;-71
2024/04/23 06:17:54;;;;;;;2.40;2.30;;;6.30;99.90;;;;;;5395039;26;20260;-72
2024/04/23 06:20:22;;;;;;;2.50;2.40;;;6.40;99.90;;;;;;5369927;26;20265;-73
2024/04/23 06:22:52;;;;;;;2.60;2.50;;;6.40;99.90;;;;;;5358879;26;20305;-70
2024/04/23 06:25:23;;;;;;;2.70;2.55;;;6.40;99.90;;;;;;5392911;26;20306;-72
2024/04/23 06:27:49;;;;;;;2.70;2.60;;;6.40;99.90;;;;;;5368482;26;20267;-74
2024/04/23 06:30:18;;;;;;;2.65;2.45;;;6.30;99.90;;;;;;5396885;26;20253;-73
2024/04/23 06:32:44;;;;;;;2.75;2.53;;;6.30;99.90;;;;;;5366159;26;20256;-72
2024/04/23 06:35:15;;;;;;;2.63;2.45;;;6.30;99.90;;;;;;5366125;26;20345;-74
2024/04/23 06:37:42;;;;;;;3.17;2.90;;;6.30;99.90;;;;;;5392489;26;20324;-72
2024/04/23 06:40:11;;;;;;;2.45;2.35;;;6.40;99.90;;;;;;5391510;26;20252;-72
2024/04/23 06:42:37;;;;;;;6.63;5.97;;;6.50;99.90;;;;;;5363096;26;20244;-71
2024/04/23 06:45:06;;;;;;;5.20;4.70;;;6.50;99.90;;;;;;5357627;26;20248;-71
2024/04/23 06:47:33;;;;;;;4.45;4.05;;;6.50;99.90;;;;;;5354428;26;20256;-72
2024/04/23 06:50:02;;;;;;;4.35;3.97;;;6.40;99.90;;;;;;5361393;26;20405;-72
2024/04/23 06:52:34;;;;;;;3.55;3.25;;;6.40;99.90;;;;;;5395260;26;20275;-72
2024/04/23 06:55:02;;;;;;;3.85;3.55;;;6.30;99.90;;;;;;5363753;26;20866;-73
2024/04/23 06:57:30;;;;;;;3.30;3.10;;;6.30;99.90;;;;;;5389253;26;20305;-72
2024/04/23 06:59:56;;;;;;;3.05;2.85;;;6.30;99.90;;;;;;5379890;26;20265;-72
2024/04/23 07:02:25;;;;;;;3.30;3.00;;;6.30;99.90;;;;;;5367854;26;20306;-72
2024/04/23 07:04:51;;;;;;;2.90;2.70;;;6.30;99.90;;;;;;5380324;26;20259;-72
2024/04/23 07:07:19;;;;;;;2.90;2.67;;;6.30;99.90;;;;;;5386679;26;21069;-71
2024/04/23 07:09:50;;;;;;;3.20;3.00;;;6.30;99.90;;;;;;5396733;26;20294;-72
2024/04/23 07:12:18;;;;;;;2.30;2.20;;;6.30;99.90;;;;;;5396771;26;20306;-71
2024/04/23 07:14:44;;;;;;;2.45;2.35;;;6.40;99.90;;;;;;5391307;26;20256;-72
2024/04/23 07:17:13;;;;;;;2.30;2.20;;;6.50;99.90;;;;;;5417344;26;20645;-73
2024/04/23 07:19:39;;;;;;;2.50;2.40;;;6.60;99.90;;;;;;5419017;26;20299;-73
2024/04/23 07:22:08;;;;;;;2.35;2.25;;;6.60;99.90;;;;;;5400244;26;20271;-72
2024/04/23 07:24:36;;;;;;;2.40;2.30;;;6.70;99.90;;;;;;5416673;26;20294;-72
2024/04/23 07:27:08;;;;;;;2.30;2.20;;;6.80;99.90;;;;;;5381129;26;20914;-72
2024/04/23 07:29:34;;;;;;;2.40;2.20;;;6.90;99.90;;;;;;5385557;26;20300;-73
2024/04/23 07:32:02;;;;;;;2.35;2.25;;;7.00;99.90;;;;;;5379028;26;20313;-72
2024/04/23 07:34:28;;;;;;;2.33;2.22;;;7.00;99.90;;;;;;5408488;26;20253;-72
2024/04/23 07:36:57;;;;;;;2.50;2.40;;;7.00;99.90;;;;;;5360853;26;20252;-73
2024/04/23 07:39:23;;;;;;;2.50;2.40;;;7.00;99.90;;;;;;5416334;26;20258;-72
2024/04/23 07:41:52;;;;;;;2.15;2.05;;;7.00;99.90;;;;;;5399133;26;20418;-72
2024/04/23 07:44:20;;;;;;;2.20;2.10;;;7.00;99.90;;;;;;5393145;26;20884;-72
2024/04/23 07:46:49;;;;;;;2.20;2.10;;;7.10;99.90;;;;;;5382432;26;20260;-71
2024/04/23 07:49:15;;;;;;;2.13;2.03;;;7.10;99.90;;;;;;5381137;26;20273;-73
2024/04/23 07:51:43;;;;;;;2.45;2.35;;;7.20;99.90;;;;;;5390943;26;20287;-72
2024/04/23 07:54:09;;;;;;;2.40;2.30;;;7.20;99.90;;;;;;5390362;26;20248;-72
2024/04/23 07:56:40;;;;;;;2.20;2.10;;;7.30;99.90;;;;;;5382058;26;20317;-73
2024/04/23 07:59:06;;;;;;;2.30;2.20;;;7.50;99.90;;;;;;5383191;26;20312;-71
2024/04/23 08:01:41;;;;;;;2.33;2.20;;;7.70;99.90;;;;;;5389062;26;20260;-72
2024/04/23 08:04:06;;;;;;;2.35;2.25;;;7.70;99.90;;;;;;5390803;26;20832;-72
2024/04/23 08:06:35;;;;;;;2.42;2.33;;;7.60;99.90;;;;;;5386584;26;20340;-72
2024/04/23 08:09:01;;;;;;;2.67;2.25;;;7.50;99.90;;;;;;5417009;26;20247;-72
2024/04/23 08:11:30;;;;;;;2.15;2.05;;;7.40;99.90;;;;;;5439790;26;20258;-72
2024/04/23 08:13:56;;;;;;;1.90;1.80;;;7.40;99.90;;;;;;5402471;26;20248;-72
2024/04/23 08:16:24;;;;;;;2.30;2.17;;;7.30;99.90;;;;;;5409722;26;20251;-72
2024/04/23 08:18:53;;;;;;;2.10;2.00;;;7.30;99.90;;;;;;5418766;26;20250;-72
2024/04/23 08:21:21;;;;;;;2.28;2.17;;;7.30;99.90;;;;;;5394950;26;20275;-72
2024/04/23 08:23:49;;;;;;;2.22;2.13;;;7.40;99.90;;;;;;5424026;26;20282;-71
2024/04/23 08:26:17;;;;;;;1.92;1.83;;;7.50;99.90;;;;;;5429622;26;20264;-71
2024/04/23 08:28:44;;;;;;;2.13;2.03;;;7.70;99.90;;;;;;5391043;26;20305;-72
2024/04/23 08:31:12;;;;;;;1.92;1.83;;;7.70;99.90;;;;;;5417418;26;20248;-72
2024/04/23 08:33:38;;;;;;;2.10;2.00;;;7.80;99.90;;;;;;5390706;26;20259;-73
2024/04/23 08:36:10;;;;;;;2.17;2.08;;;7.90;99.90;;;;;;5396139;26;20260;-72
2024/04/23 08:38:36;;;;;;;2.05;1.95;;;7.70;99.90;;;;;;5426139;26;20259;-71
2024/04/23 08:41:06;;;;;;;2.50;2.40;;;7.70;99.90;;;;;;5425094;26;21116;-72
2024/04/23 08:43:39;;;;;;;2.25;2.15;;;7.50;99.90;;;;;;5391934;26;20326;-71
2024/04/23 08:46:09;;;;;;;2.25;2.15;;;7.40;99.90;;;;;;5361411;26;20328;-72
2024/04/23 08:48:35;;;;;;;2.40;2.30;;;7.40;99.90;;;;;;5393359;26;20848;-73
2024/04/23 08:51:07;;;;;;;2.17;2.08;;;7.40;99.90;;;;;;5399392;26;20271;-73
2024/04/23 08:53:39;;;;;;;2.28;2.17;;;7.50;99.90;;;;;;5359314;26;21197;-72
2024/04/23 08:56:12;;;;;;;2.78;2.58;;;7.50;99.90;;;;;;5427368;26;20259;-72
2024/04/23 08:58:38;;;;;;;2.40;2.20;;;7.50;99.90;;;;;;5407001;26;20747;-73
2024/04/23 09:01:09;;;;;;;2.70;2.50;;;7.60;99.90;;;;;;5424738;26;20796;-72
2024/04/23 09:03:43;;;;;;;2.60;2.50;;;7.80;99.90;;;;;;5392989;26;20255;-72
2024/04/23 09:06:12;;;;;;;2.40;2.30;;;8.10;99.90;;;;;;5399594;26;20298;-72
2024/04/23 09:08:41;;;;;;;2.28;2.17;;;8.20;99.90;;;;;;5415305;26;20290;-72
2024/04/23 09:11:10;;;;;;;2.25;2.15;;;8.40;99.90;;;;;;5427257;26;20247;-72
2024/04/23 09:13:36;;;;;;;2.33;2.22;;;8.50;99.90;;;;;;5424496;26;20243;-72
2024/04/23 09:16:06;;;;;;;2.00;1.90;;;8.70;99.90;;;;;;5421408;26;20585;-72
2024/04/23 09:18:32;;;;;;;2.20;2.10;;;8.80;99.90;;;;;;5366811;26;20289;-72
2024/04/23 09:21:02;;;;;;;2.30;2.20;;;9.00;99.90;;;;;;5429503;26;20606;-72
2024/04/23 09:23:28;;;;;;;2.22;2.13;;;9.20;99.90;;;;;;5434947;26;20265;-73
2024/04/23 09:26:01;;;;;;;2.20;2.10;;;9.10;99.90;;;;;;5421359;26;20263;-72
2024/04/23 09:28:31;;;;;;;2.50;2.40;;;9.00;99.90;;;;;;5398907;26;20326;-72
2024/04/23 09:31:00;;;;;;;2.10;2.00;;;8.90;99.90;;;;;;5427563;26;20256;-72
2024/04/23 09:33:29;;;;;;;2.95;2.28;;;8.80;99.90;;;;;;5399529;26;20251;-72
2024/04/23 09:36:09;;;;;;;2.17;2.08;;;8.60;99.90;;;;;;5397706;26;20388;-73
2024/04/23 09:38:35;;;;;;;2.25;2.15;;;8.60;99.90;;;;;;5424909;26;20251;-73
2024/04/23 09:41:08;;;;;;;2.15;2.05;;;8.50;99.90;;;;;;5418281;26;20251;-72
2024/04/23 09:43:36;;;;;;;1.90;1.80;;;8.40;99.90;;;;;;5419245;26;20250;-71
2024/04/23 09:46:05;;;;;;;2.10;2.00;;;8.30;99.90;;;;;;5426665;26;20289;-72
2024/04/23 09:48:32;;;;;;;2.00;1.90;;;8.20;99.90;;;;;;5430012;26;20257;-72
2024/04/23 09:51:04;;;;;;;1.92;1.83;;;8.20;99.90;;;;;;5414484;26;20309;-74
2024/04/23 09:53:31;;;;;;;2.25;2.15;;;8.20;99.90;;;;;;5400872;26;20343;-73
2024/04/23 09:56:01;;;;;;;2.20;2.10;;;8.20;99.90;;;;;;5405786;26;20347;-71
2024/04/23 09:58:32;;;;;;;2.95;2.70;;;8.10;99.90;;;;;;5397613;26;20295;-72
2024/04/23 10:01:02;;;;;;;2.10;2.00;;;8.00;99.90;;;;;;5433747;26;20339;-71
2024/04/23 10:03:29;;;;;;;2.03;1.92;;;8.10;99.90;;;;;;5433648;26;20252;-73
2024/04/23 10:06:05;;;;;;;1.92;1.83;;;8.20;99.90;;;;;;5425966;26;21068;-72
2024/04/23 10:08:44;;;;;;;1.88;1.77;;;8.20;99.90;;;;;;5422717;26;21017;-71
2024/04/23 10:11:16;;;;;;;2.20;2.10;;;8.30;99.90;;;;;;5417444;26;21085;-72
2024/04/23 10:13:55;;;;;;;1.88;1.77;;;8.40;99.90;;;;;;5395708;26;20346;-72
2024/04/23 10:16:30;;;;;;;1.95;1.85;;;8.40;99.90;;;;;;5393552;26;20326;-72
2024/04/23 10:19:02;;;;;;;1.80;1.70;;;8.50;99.90;;;;;;5413111;26;20756;-72
2024/04/23 10:21:31;;;;;;;2.22;2.13;;;8.60;99.90;;;;;;5405608;26;20282;-72
2024/04/23 10:24:07;;;;;;;1.98;1.88;;;8.60;99.90;;;;;;5360760;26;22773;-73
2024/04/23 10:26:34;;;;;;;2.03;1.92;;;8.60;99.90;;;;;;5420604;26;20322;-71
2024/04/23 10:29:06;;;;;;;2.10;2.00;;;8.70;99.90;;;;;;5419523;26;20315;-72
2024/04/23 10:31:33;;;;;;;2.00;1.90;;;8.60;99.90;;;;;;5392318;26;20306;-72
2024/04/23 10:34:04;;;;;;;1.80;1.70;;;8.60;99.90;;;;;;5409817;26;20355;-72
2024/04/23 10:36:31;;;;;;;1.83;1.83;;;8.60;99.90;;;;;;5422675;26;20236;-73
2024/04/23 10:39:02;;;;;;;1.80;1.70;;;8.60;99.90;;;;;;5390309;26;20248;-71
2024/04/23 10:41:30;;;;;;;1.65;1.60;;;8.60;99.90;;;;;;5420161;26;20259;-73
2024/04/23 10:44:00;;;;;;;1.90;1.80;;;8.60;99.90;;;;;;5391805;26;20255;-72
2024/04/23 10:46:29;;;;;;;1.90;1.80;;;8.60;99.90;;;;;;5399598;26;20297;-73
2024/04/23 10:48:59;;;;;;;1.80;1.70;;;8.70;99.90;;;;;;5424705;26;20258;-73
2024/04/23 10:51:26;;;;;;;1.83;1.73;;;8.80;99.90;;;;;;5422016;26;20243;-73
2024/04/23 10:53:55;;;;;;;3.03;2.83;;;8.90;99.90;;;;;;5393450;26;20247;-71
2024/04/23 10:56:23;;;;;;;3.75;3.45;;;9.00;99.90;;;;;;5397529;26;22061;-72
2024/04/23 10:59:01;;;;;;;5.15;4.05;;;9.20;99.90;;;;;;5401917;26;20264;-72
2024/04/23 11:01:30;;;;;;;3.38;3.08;;;9.50;99.90;;;;;;5363492;26;20303;-71
2024/04/23 11:04:00;;;;;;;3.00;2.80;;;9.70;99.90;;;;;;5393134;26;20347;-72
2024/04/23 11:06:36;;;;;;;2.20;2.10;;;9.90;99.90;;;;;;5421814;26;20721;-71
2024/04/23 11:09:17;;;;;;;2.20;2.10;;;9.90;99.90;;;;;;5414996;26;20629;-72
2024/04/23 11:11:50;;;;;;;2.17;2.08;;;10.00;99.90;;;;;;5424180;26;20251;-72
2024/04/23 11:14:20;;;;;;;2.30;2.20;;;10.10;99.90;;;;;;5396492;26;21043;-72
2024/04/23 11:16:59;;;;;;;2.20;2.10;;;10.10;99.90;;;;;;5401922;26;20281;-75
2024/04/23 11:19:36;;;;;;;1.98;1.88;;;10.20;99.90;;;;;;5400162;26;20282;-73
2024/04/23 11:22:05;;;;;;;1.98;1.88;;;10.20;99.90;;;;;;5425656;26;20247;-73
2024/04/23 11:24:39;;;;;;;1.90;1.80;;;10.30;99.90;;;;;;5425859;26;21116;-72
2024/04/23 11:27:05;;;;;;;1.67;1.67;;;10.40;99.90;;;;;;5371980;26;20429;-72
2024/04/23 11:29:34;;;;;;;1.77;1.67;;;10.50;99.90;;;;;;5435261;26;20988;-72
2024/04/23 11:32:03;;;;;;;1.80;1.70;;;10.60;99.90;;;;;;5401557;26;20297;-76
2024/04/23 11:34:32;;;;;;;1.55;1.55;;;10.60;99.90;;;;;;5421805;26;20259;-74
2024/04/23 11:36:58;;;;;;;1.77;1.67;;;10.60;99.90;;;;;;5413221;26;20284;-73
2024/04/23 11:39:27;;;;;;;1.85;1.75;;;10.60;99.90;;;;;;5422388;26;21640;-73
2024/04/23 11:41:54;;;;;;;1.88;1.40;;;10.70;99.90;;;;;;5367936;26;20301;-75
2024/04/23 11:44:27;;;;;;;3.33;1.50;;;10.90;99.90;;;;;;5394556;26;20264;-72
2024/04/23 11:46:53;;;;;;;1.77;1.67;;;11.10;99.90;;;;;;5370974;26;20256;-72
2024/04/23 11:49:27;;;;;;;1.60;1.50;;;11.20;99.90;;;;;;5424418;26;20306;-72
2024/04/23 11:51:54;;;;;;;2.33;1.70;;;11.20;99.90;;;;;;5428250;26;20244;-72
2024/04/23 11:54:24;;;;;;;1.70;1.60;;;11.20;99.90;;;;;;5420380;26;20355;-72
2024/04/23 11:56:51;;;;;;;1.92;1.83;;;11.20;99.90;;;;;;5391933;26;20361;-72
2024/04/23 11:59:22;;;;;;;1.42;1.33;;;11.30;99.90;;;;;;5421572;26;20255;-73
2024/04/23 12:01:48;;;;;;;2.25;1.40;;;11.50;99.90;;;;;;5369448;26;20334;-73
2024/04/23 12:04:19;;;;;;;2.00;1.55;;;11.60;99.90;;;;;;5424107;26;20286;-76
2024/04/23 12:06:51;;;;;;;1.60;1.50;;;11.80;99.90;;;;;;5394347;26;20905;-72
2024/04/23 12:09:22;;;;;;;1.70;1.60;;;11.90;99.90;;;;;;5396097;26;20294;-72
2024/04/23 12:11:48;;;;;;;1.13;1.13;;;11.90;99.90;;;;;;5421742;26;20351;-74
2024/04/23 12:14:19;;;;;;;5.18;2.17;;;12.00;99.90;;;;;;5420320;26;20290;-73
2024/04/23 12:16:45;;;;;;;1.73;1.63;;;12.50;99.90;;;;;;5416413;26;21397;-72
2024/04/23 12:19:14;;;;;;;1.65;1.55;;;12.50;99.90;;;;;;5419375;26;20259;-72
2024/04/23 12:21:41;;;;;;;1.60;1.50;;;12.50;99.90;;;;;;5410030;26;20281;-72
2024/04/23 12:24:15;;;;;;;2.38;2.28;;;12.30;99.90;;;;;;5426342;26;20470;-73
2024/04/23 12:26:41;;;;;;;2.05;1.80;;;12.30;99.90;;;;;;5422324;26;20249;-73
2024/04/23 12:29:11;;;;;;;3.17;2.55;;;12.20;99.90;;;;;;5421287;26;21098;-76
2024/04/23 12:31:37;;;;;;;1.60;1.50;;;12.30;99.90;;;;;;5406539;26;20319;-73
2024/04/23 12:34:06;;;;;;;1.50;1.40;;;12.10;99.90;;;;;;5422042;26;20946;-73
2024/04/23 12:36:33;;;;;;;1.60;1.60;;;12.20;99.90;;;;;;5423741;26;20243;-73
2024/04/23 12:39:13;;;;;;;1.23;1.23;;;12.40;99.90;;;;;;5422498;26;20258;-74
2024/04/23 12:41:39;;;;;;;1.55;1.40;;;12.60;99.90;;;;;;5369286;26;20255;-73
2024/04/23 12:44:16;;;;;;;1.30;1.30;;;12.70;99.90;;;;;;5427124;26;20716;-72
2024/04/23 12:46:43;;;;;;;1.60;1.50;;;12.80;99.90;;;;;;5417877;26;20333;-73
2024/04/23 12:49:13;;;;;;;1.70;1.60;;;12.90;99.90;;;;;;5416535;26;20307;-73
2024/04/23 12:51:39;;;;;;;3.15;2.95;;;12.70;99.90;;;;;;5419406;26;20239;-75
2024/04/23 12:54:09;;;;;;;1.98;1.60;;;12.40;99.90;;;;;;5417552;26;20277;-73
2024/04/23 12:56:38;;;;;;;1.95;1.83;;;12.40;99.90;;;;;;5396428;26;20251;-73
2024/04/23 12:59:09;;;;;;;1.85;1.75;;;12.30;99.90;;;;;;5386940;26;20610;-72
2024/04/23 13:01:35;;;;;;;1.60;1.50;;;12.20;99.90;;;;;;5421182;26;20250;-73
2024/04/23 13:04:04;;;;;;;2.03;1.88;;;12.20;99.90;;;;;;5393648;26;20243;-73
2024/04/23 13:06:30;;;;;;;1.50;1.50;;;11.90;99.90;;;;;;5421732;26;21184;-73
2024/04/23 13:09:00;;;;;;;1.63;1.52;;;11.80;99.90;;;;;;5393300;26;20885;-73
2024/04/23 13:11:26;;;;;;;1.60;1.50;;;11.70;99.90;;;;;;5417026;26;20319;-73